Market Drayton, United Kingdom
Current Conditions -  °F | °C
As of 9:50 AM on Saturday 22 Nov 2014 (Local Time) from EGOS Reporting Station
Broken Clouds Broken Clouds  
Wind Chill: 54°   Ceiling: 10000
Heat Index: 54°   Visibility: 6mi
Dew Point: 52°   Wind: 6mph
Humidity: 94%   Direction: 160°SSE
Pressure: 29.8"   Gusts: NA
Location:  52.91°N, 2.49°W
Report Text: EGOS 220950Z AUTO 16005KT 9999 FEW050/// BKN100/// 12/11 Q1009 RERA
Loading
Personal Weather Stations






























Interactive Weather Map New forecast layout! Learn more

10-Day Weather Forecast

Advertisements
Track Severe Weather on mobile